createdAt,value
2023-05-20T00:00:08.880Z,790.41
2023-05-20T00:01:08.839Z,797.97
2023-05-20T00:02:08.818Z,798.45
2023-05-20T00:03:08.822Z,795.59
2023-05-20T00:04:08.994Z,799.40
2023-05-20T00:05:08.802Z,797.02
2023-05-20T00:06:08.763Z,797.02
2023-05-20T00:07:08.766Z,797.02
2023-05-20T00:08:08.726Z,798.45
2023-05-20T00:09:08.742Z,799.40
2023-05-20T00:10:08.718Z,796.54
2023-05-20T00:11:08.702Z,794.64
2023-05-20T00:12:08.705Z,797.02
2023-05-20T00:13:08.669Z,795.59
2023-05-20T00:14:08.645Z,789.94
2023-05-20T00:15:08.635Z,794.17
2023-05-20T00:16:08.708Z,798.45
2023-05-20T00:17:08.607Z,797.02
2023-05-20T00:18:08.643Z,790.88
2023-05-20T00:19:08.624Z,794.17
2023-05-20T00:20:08.649Z,792.28
2023-05-20T00:21:08.581Z,792.76
2023-05-20T00:22:08.571Z,792.28
2023-05-20T00:23:08.533Z,797.02
2023-05-20T00:24:08.525Z,797.97
2023-05-20T00:25:08.503Z,799.40
2023-05-20T00:26:08.519Z,795.12
2023-05-20T00:27:08.476Z,800.84
2023-05-20T00:28:08.461Z,799.40
2023-05-20T00:29:08.449Z,794.64
2023-05-20T00:30:08.546Z,797.02
2023-05-20T00:31:08.410Z,800.36
2023-05-20T00:32:08.455Z,807.13
2023-05-20T00:33:08.515Z,797.49
2023-05-20T00:34:08.388Z,796.54
2023-05-20T00:35:08.375Z,798.45
2023-05-20T00:36:08.359Z,797.97
2023-05-20T00:37:08.352Z,794.64
2023-05-20T00:38:08.320Z,797.02
2023-05-20T00:39:08.339Z,795.59
2023-05-20T00:40:08.386Z,791.35
2023-05-20T00:41:08.279Z,797.02
2023-05-20T00:42:08.340Z,789.01
2023-05-20T00:43:08.251Z,794.64
2023-05-20T00:44:08.264Z,789.01
2023-05-20T00:45:08.245Z,794.64
2023-05-20T00:46:08.227Z,789.01
2023-05-20T00:47:08.249Z,795.59
2023-05-20T00:48:08.268Z,789.94
2023-05-20T00:49:08.210Z,791.82
2023-05-20T00:50:08.148Z,795.59
2023-05-20T00:51:08.140Z,794.17
2023-05-20T00:52:08.128Z,786.22
2023-05-20T00:53:08.111Z,792.28
2023-05-20T00:54:08.099Z,794.64
2023-05-20T00:55:08.099Z,801.32
2023-05-20T00:56:08.072Z,795.59
2023-05-20T00:57:08.046Z,799.40
2023-05-20T00:58:08.047Z,801.32
2023-05-20T00:59:08.034Z,803.73
2023-05-20T01:00:08.019Z,805.19
2023-05-20T01:01:08.022Z,803.25
2023-05-20T01:02:08.046Z,811.55
2023-05-20T01:03:08.170Z,810.07
2023-05-20T01:04:07.959Z,814.52
2023-05-20T01:05:07.934Z,818.02
2023-05-20T01:06:07.919Z,822.55
2023-05-20T01:07:07.911Z,823.06
2023-05-20T01:08:07.904Z,825.60
2023-05-20T01:09:07.897Z,825.60
2023-05-20T01:10:07.901Z,824.07
2023-05-20T01:11:07.842Z,827.65
2023-05-20T01:12:07.852Z,830.74
2023-05-20T01:13:07.832Z,831.78
2023-05-20T01:14:07.819Z,828.16
2023-05-20T01:15:07.801Z,831.26
2023-05-20T01:16:07.847Z,826.11
2023-05-20T01:17:07.786Z,829.19
2023-05-20T01:18:07.781Z,833.85
2023-05-20T01:19:07.898Z,834.90
2023-05-20T01:20:05.821Z,834.38
2023-05-20T01:21:07.714Z,841.21
2023-05-20T01:22:07.729Z,839.62
2023-05-20T01:23:07.692Z,841.21
2023-05-20T01:24:07.686Z,843.87
2023-05-20T01:25:07.670Z,840.15
2023-05-20T01:26:07.668Z,842.80
2023-05-20T01:27:07.641Z,842.80
2023-05-20T01:28:07.617Z,839.09
2023-05-20T01:29:07.607Z,841.74
2023-05-20T01:30:07.616Z,844.40
2023-05-20T01:31:07.712Z,843.34
2023-05-20T01:32:07.573Z,844.94
2023-05-20T01:33:07.604Z,847.08
2023-05-20T01:34:07.540Z,842.80
2023-05-20T01:35:07.532Z,841.21
2023-05-20T01:36:07.549Z,846.54
2023-05-20T01:37:07.503Z,849.78
2023-05-20T01:38:07.492Z,847.08
2023-05-20T01:39:07.474Z,846.01
2023-05-20T01:40:07.478Z,840.68
2023-05-20T01:41:07.460Z,843.87
2023-05-20T01:42:07.423Z,836.47
2023-05-20T01:43:07.416Z,840.15
2023-05-20T01:44:07.400Z,836.99
2023-05-20T01:45:07.409Z,833.33
2023-05-20T01:46:07.410Z,835.42
2023-05-20T01:47:07.412Z,836.99
2023-05-20T01:48:07.379Z,834.38
2023-05-20T01:49:07.349Z,829.19
2023-05-20T01:50:07.337Z,826.11
2023-05-20T01:51:07.311Z,826.62
2023-05-20T01:52:07.296Z,825.60
2023-05-20T01:53:07.272Z,832.29
2023-05-20T01:54:07.286Z,824.58
2023-05-20T01:55:07.276Z,831.78
2023-05-20T01:56:07.246Z,821.03
2023-05-20T01:57:07.238Z,813.53
2023-05-20T01:58:07.201Z,823.06
2023-05-20T01:59:07.232Z,814.52
2023-05-20T02:00:07.208Z,813.53
2023-05-20T02:01:07.249Z,809.58
2023-05-20T02:02:07.285Z,816.51
2023-05-20T02:03:07.218Z,815.02
2023-05-20T02:04:07.158Z,814.02
2023-05-20T02:05:07.108Z,808.11
2023-05-20T02:06:07.143Z,814.02
2023-05-20T02:07:07.089Z,809.09
2023-05-20T02:08:07.066Z,812.54
2023-05-20T02:09:07.076Z,811.06
2023-05-20T02:10:07.047Z,812.54
2023-05-20T02:11:07.039Z,805.19
2023-05-20T02:12:07.015Z,802.28
2023-05-20T02:13:07.027Z,805.67
2023-05-20T02:14:07.000Z,808.11
2023-05-20T02:15:06.978Z,800.84
2023-05-20T02:16:06.977Z,795.12
2023-05-20T02:17:06.951Z,799.88
2023-05-20T02:18:06.984Z,797.97
2023-05-20T02:19:06.993Z,791.82
2023-05-20T02:20:06.921Z,790.88
2023-05-20T02:21:06.915Z,794.17
2023-05-20T02:22:06.889Z,792.76
2023-05-20T02:23:06.965Z,790.41
2023-05-20T02:24:06.858Z,790.41
2023-05-20T02:25:06.858Z,786.68
2023-05-20T02:26:06.832Z,790.41
2023-05-20T02:27:06.839Z,791.82
2023-05-20T02:28:06.825Z,784.83
2023-05-20T02:29:06.797Z,781.16
2023-05-20T02:30:06.825Z,789.94
2023-05-20T02:31:06.768Z,790.41
2023-05-20T02:32:06.768Z,785.76
2023-05-20T02:33:06.763Z,787.61
2023-05-20T02:34:06.769Z,791.82
2023-05-20T02:35:06.743Z,789.01
2023-05-20T02:36:06.696Z,787.61
2023-05-20T02:37:06.728Z,793.70
2023-05-20T02:38:06.664Z,788.08
2023-05-20T02:39:06.667Z,787.15
2023-05-20T02:40:06.687Z,789.01
2023-05-20T02:41:06.633Z,788.54
2023-05-20T02:42:06.657Z,785.76
2023-05-20T02:43:06.616Z,782.99
2023-05-20T02:44:06.611Z,782.99
2023-05-20T02:45:06.582Z,781.16
2023-05-20T02:46:06.581Z,781.62
2023-05-20T02:47:06.559Z,780.70
2023-05-20T02:48:06.594Z,780.24
2023-05-20T02:49:06.516Z,777.07
2023-05-20T02:50:06.553Z,776.61
2023-05-20T02:51:06.511Z,772.57
2023-05-20T02:52:06.516Z,776.16
2023-05-20T02:53:06.460Z,775.71
2023-05-20T02:54:06.456Z,774.81
2023-05-20T02:55:06.442Z,772.12
2023-05-20T02:56:06.441Z,769.45
2023-05-20T02:57:06.443Z,765.48
2023-05-20T02:58:06.402Z,766.36
2023-05-20T02:59:06.382Z,763.73
2023-05-20T03:00:06.401Z,766.80
2023-05-20T03:01:06.421Z,763.29
2023-05-20T03:02:06.354Z,761.55
2023-05-20T03:03:06.395Z,757.23
2023-05-20T03:04:06.344Z,761.12
2023-05-20T03:05:06.308Z,754.66
2023-05-20T03:06:06.296Z,751.27
2023-05-20T03:07:06.275Z,754.24
2023-05-20T03:08:06.261Z,746.23
2023-05-20T03:09:06.246Z,750.42
2023-05-20T03:10:06.235Z,742.58
2023-05-20T03:11:06.839Z,742.58
2023-05-20T03:12:06.205Z,734.40
2023-05-20T03:13:06.190Z,731.98
2023-05-20T03:14:06.175Z,728.78
2023-05-20T03:15:06.180Z,733.59
2023-05-20T03:16:06.179Z,726.40
2023-05-20T03:17:06.148Z,727.19
2023-05-20T03:18:06.193Z,725.61
2023-05-20T03:19:06.144Z,716.26
2023-05-20T03:20:06.146Z,717.80
2023-05-20T03:21:06.090Z,719.34
2023-05-20T03:22:06.101Z,710.15
2023-05-20T03:23:06.071Z,707.89
2023-05-20T03:24:06.044Z,701.19
2023-05-20T03:25:06.071Z,704.15
2023-05-20T03:26:06.013Z,701.93
2023-05-20T03:27:05.986Z,693.17
2023-05-20T03:28:05.977Z,688.88
2023-05-20T03:29:05.976Z,686.04
2023-05-20T03:30:05.972Z,688.17
2023-05-20T03:31:05.991Z,688.17
2023-05-20T03:32:06.675Z,686.75
2023-05-20T03:33:06.026Z,679.75
2023-05-20T03:34:05.912Z,675.62
2023-05-20T03:35:05.905Z,670.86
2023-05-20T03:36:05.899Z,670.86
2023-05-20T03:37:05.882Z,669.51
2023-05-20T03:38:05.855Z,665.50
2023-05-20T03:39:05.845Z,663.52
2023-05-20T03:40:05.823Z,660.23
2023-05-20T03:41:05.808Z,656.98
2023-05-20T03:42:05.791Z,656.33
2023-05-20T03:43:05.785Z,653.12
2023-05-20T03:44:05.813Z,651.84
2023-05-20T03:45:05.765Z,651.84
2023-05-20T03:46:05.264Z,648.04
2023-05-20T03:47:05.823Z,644.91
2023-05-20T03:48:05.775Z,641.80
2023-05-20T03:49:05.711Z,638.73
2023-05-20T03:50:05.682Z,635.08
2023-05-20T03:51:05.661Z,630.28
2023-05-20T03:52:05.678Z,627.90
2023-05-20T03:53:05.654Z,624.96
2023-05-20T03:54:05.653Z,625.55
2023-05-20T03:55:05.651Z,621.47
2023-05-20T03:56:05.596Z,618.01
2023-05-20T03:57:05.585Z,614.59
2023-05-20T03:58:05.603Z,606.21
2023-05-20T03:59:05.586Z,603.47
2023-05-20T04:00:05.555Z,600.21
2023-05-20T04:01:05.550Z,597.52
2023-05-20T04:02:05.600Z,595.92
2023-05-20T04:03:05.619Z,593.27
2023-05-20T04:04:05.572Z,590.64
2023-05-20T04:05:05.487Z,589.08
2023-05-20T04:06:05.483Z,585.46
2023-05-20T04:07:05.483Z,584.94
2023-05-20T04:08:05.449Z,580.86
2023-05-20T04:09:05.427Z,578.85
2023-05-20T04:10:05.436Z,575.85
2023-05-20T04:11:05.412Z,574.36
2023-05-20T04:12:05.394Z,570.92
2023-05-20T04:13:05.384Z,568.97
2023-05-20T04:14:05.368Z,567.03
2023-05-20T04:15:05.339Z,567.03
2023-05-20T04:16:05.384Z,565.11
2023-05-20T04:17:05.411Z,563.20
2023-05-20T04:18:05.380Z,560.84
2023-05-20T04:19:05.328Z,558.49
2023-05-20T04:20:05.290Z,557.55
2023-05-20T04:21:05.264Z,556.62
2023-05-20T04:22:05.252Z,554.77
2023-05-20T04:23:05.246Z,552.47
2023-05-20T04:24:05.230Z,549.74
2023-05-20T04:25:05.238Z,547.03
2023-05-20T04:26:05.211Z,544.80
2023-05-20T04:27:05.192Z,543.47
2023-05-20T04:28:05.178Z,542.14
2023-05-20T04:29:05.148Z,538.64
2023-05-20T04:30:05.145Z,534.75
2023-05-20T04:31:05.124Z,532.61
2023-05-20T04:32:05.154Z,530.07
2023-05-20T04:33:05.148Z,530.50
2023-05-20T04:34:05.106Z,525.07
2023-05-20T04:35:05.073Z,523.83
2023-05-20T04:36:05.054Z,522.19
2023-05-20T04:37:05.052Z,519.74
2023-05-20T04:38:05.037Z,515.73
2023-05-20T04:39:05.047Z,514.14
2023-05-20T04:40:05.032Z,512.55
2023-05-20T04:41:04.995Z,512.95
2023-05-20T04:42:05.064Z,510.59
2023-05-20T04:43:04.978Z,508.26
2023-05-20T04:44:04.961Z,506.33
2023-05-20T04:45:04.957Z,503.27
2023-05-20T04:46:04.977Z,500.62
2023-05-20T04:47:04.920Z,499.13
2023-05-20T04:48:04.929Z,497.64
2023-05-20T04:49:04.884Z,498.75
2023-05-20T04:50:04.885Z,494.68
2023-05-20T04:51:04.885Z,495.05
2023-05-20T04:52:04.857Z,493.95
2023-05-20T04:53:04.841Z,494.32
2023-05-20T04:54:04.817Z,490.32
2023-05-20T04:55:04.807Z,486.74
2023-05-20T04:56:04.812Z,486.03
2023-05-20T04:57:04.804Z,491.77
2023-05-20T04:58:04.787Z,489.24
2023-05-20T04:59:04.755Z,489.96
2023-05-20T05:00:04.758Z,492.86
2023-05-20T05:01:04.811Z,497.27
2023-05-20T05:02:04.722Z,498.01
2023-05-20T05:03:04.805Z,498.38
2023-05-20T05:04:04.699Z,500.25
2023-05-20T05:05:04.717Z,502.51
2023-05-20T05:06:04.678Z,506.33
2023-05-20T05:07:04.683Z,506.33
2023-05-20T05:08:04.652Z,509.81
2023-05-20T05:09:04.600Z,512.16
2023-05-20T05:10:04.606Z,514.93
2023-05-20T05:11:04.595Z,515.33
2023-05-20T05:12:04.573Z,517.73
2023-05-20T05:13:04.559Z,518.13
2023-05-20T05:14:04.543Z,519.74
2023-05-20T05:15:04.585Z,523.42
2023-05-20T05:16:04.531Z,523.42
2023-05-20T05:17:04.510Z,525.48
2023-05-20T05:18:04.603Z,525.89
2023-05-20T05:19:04.521Z,527.98
2023-05-20T05:20:04.492Z,528.81
2023-05-20T05:21:04.483Z,524.65
2023-05-20T05:22:04.436Z,526.72
2023-05-20T05:23:04.425Z,526.31
2023-05-20T05:24:04.399Z,525.89
2023-05-20T05:25:04.411Z,527.98
2023-05-20T05:26:04.393Z,527.56
2023-05-20T05:27:04.376Z,530.92
2023-05-20T05:28:04.358Z,528.81
2023-05-20T05:29:04.369Z,530.07
2023-05-20T05:30:04.333Z,532.61
2023-05-20T05:31:04.322Z,527.98
2023-05-20T05:32:04.310Z,529.23
2023-05-20T05:33:04.432Z,523.42
2023-05-20T05:34:04.279Z,523.01
2023-05-20T05:35:05.495Z,524.24
2023-05-20T05:36:04.242Z,522.60
2023-05-20T05:37:04.229Z,518.94
2023-05-20T05:38:04.226Z,517.73
2023-05-20T05:39:04.222Z,516.92
2023-05-20T05:40:04.219Z,518.13
2023-05-20T05:41:04.162Z,515.33
2023-05-20T05:42:04.152Z,514.53
2023-05-20T05:43:04.154Z,515.33
2023-05-20T05:44:04.142Z,514.14
2023-05-20T05:45:04.113Z,517.73
2023-05-20T05:46:04.114Z,514.53
2023-05-20T05:47:04.129Z,512.55
2023-05-20T05:48:04.107Z,510.59
2023-05-20T05:49:04.064Z,511.77
2023-05-20T05:50:04.071Z,514.14
2023-05-20T05:51:04.027Z,508.64
2023-05-20T05:52:04.025Z,509.42
2023-05-20T05:53:04.040Z,509.03
2023-05-20T05:54:04.020Z,508.26
2023-05-20T05:55:03.979Z,509.03
2023-05-20T05:56:03.970Z,506.71
2023-05-20T05:57:05.870Z,506.33
2023-05-20T05:58:06.227Z,505.56
2023-05-20T05:59:03.925Z,506.71
2023-05-20T06:00:03.914Z,509.03
2023-05-20T06:01:03.961Z,507.10
2023-05-20T06:02:03.921Z,501.76
2023-05-20T06:03:03.963Z,504.41
2023-05-20T06:04:03.966Z,506.71
2023-05-20T06:05:03.848Z,508.64
2023-05-20T06:06:03.837Z,503.27
2023-05-20T06:07:03.817Z,505.94
2023-05-20T06:08:04.076Z,507.48
2023-05-20T06:09:03.797Z,507.10
2023-05-20T06:10:03.812Z,506.71
2023-05-20T06:11:03.769Z,507.87
2023-05-20T06:12:03.762Z,509.81
2023-05-20T06:13:03.729Z,511.77
2023-05-20T06:14:03.711Z,509.03
2023-05-20T06:15:03.716Z,511.38
2023-05-20T06:16:03.690Z,507.87
2023-05-20T06:17:03.796Z,509.81
2023-05-20T06:18:03.754Z,507.10
2023-05-20T06:19:03.954Z,511.77
2023-05-20T06:20:03.642Z,510.20
2023-05-20T06:21:03.612Z,517.33
2023-05-20T06:22:03.611Z,516.53
2023-05-20T06:23:03.580Z,520.96
2023-05-20T06:24:03.575Z,525.48
2023-05-20T06:25:03.578Z,530.07
2023-05-20T06:26:03.565Z,530.50
2023-05-20T06:27:03.577Z,537.34
2023-05-20T06:28:03.533Z,539.07
2023-05-20T06:29:03.511Z,542.58
2023-05-20T06:30:03.517Z,542.14
2023-05-20T06:31:03.535Z,543.02
2023-05-20T06:32:03.477Z,544.35
2023-05-20T06:33:03.514Z,544.35
2023-05-20T06:34:03.456Z,545.69
2023-05-20T06:35:03.434Z,543.47
2023-05-20T06:36:03.430Z,543.02
2023-05-20T06:37:03.383Z,542.14
2023-05-20T06:38:03.400Z,544.80
2023-05-20T06:39:03.365Z,542.58
2023-05-20T06:40:03.356Z,543.91
2023-05-20T06:41:03.367Z,542.58
2023-05-20T06:42:03.343Z,557.55
2023-05-20T06:43:03.315Z,546.14
2023-05-20T06:44:03.307Z,553.85
2023-05-20T06:45:03.299Z,549.74
2023-05-20T06:46:03.450Z,555.23
2023-05-20T06:47:03.325Z,553.39
2023-05-20T06:48:03.318Z,558.96
2023-05-20T06:49:03.335Z,557.09
2023-05-20T06:50:02.825Z,554.77
2023-05-20T06:51:03.217Z,560.36
2023-05-20T06:52:03.204Z,558.49
2023-05-20T06:53:03.241Z,561.31
2023-05-20T06:54:03.195Z,558.02
2023-05-20T06:55:03.180Z,560.36
2023-05-20T06:56:03.167Z,556.16
2023-05-20T06:57:03.150Z,555.23
2023-05-20T06:58:03.117Z,553.39
2023-05-20T06:59:03.133Z,554.31
2023-05-20T07:00:03.090Z,555.69
2023-05-20T07:01:03.079Z,548.38
2023-05-20T07:02:03.139Z,552.47
2023-05-20T07:03:03.118Z,552.47
2023-05-20T07:04:03.074Z,547.93
2023-05-20T07:05:03.036Z,549.74
2023-05-20T07:06:03.008Z,550.65
2023-05-20T07:07:02.996Z,550.65
2023-05-20T07:08:02.986Z,547.93
2023-05-20T07:09:02.982Z,547.93
2023-05-20T07:10:02.972Z,547.03
2023-05-20T07:11:02.945Z,552.47
2023-05-20T07:12:02.933Z,547.03
2023-05-20T07:13:02.925Z,546.59
2023-05-20T07:14:02.923Z,544.35
2023-05-20T07:15:02.383Z,541.70
2023-05-20T07:16:02.894Z,547.48
2023-05-20T07:17:02.850Z,540.82
2023-05-20T07:18:02.922Z,541.26
2023-05-20T07:19:02.878Z,533.47
2023-05-20T07:20:02.816Z,537.34
2023-05-20T07:21:02.815Z,535.61
2023-05-20T07:22:02.803Z,535.18
2023-05-20T07:23:02.777Z,537.34
2023-05-20T07:24:02.767Z,535.18
2023-05-20T07:25:02.735Z,532.61
2023-05-20T07:26:02.744Z,533.47
2023-05-20T07:27:02.730Z,524.65
2023-05-20T07:28:02.717Z,516.92
2023-05-20T07:29:02.718Z,511.38
2023-05-20T07:30:02.696Z,509.42
2023-05-20T07:31:02.678Z,504.79
2023-05-20T07:32:02.704Z,500.25
2023-05-20T07:33:02.733Z,496.89
2023-05-20T07:34:02.643Z,490.68
2023-05-20T07:35:02.640Z,486.74
2023-05-20T07:36:02.598Z,486.39
2023-05-20T07:37:02.620Z,485.68
2023-05-20T07:38:02.588Z,482.86
2023-05-20T07:39:04.433Z,477.67
2023-05-20T07:40:02.554Z,477.67
2023-05-20T07:41:02.536Z,475.29
2023-05-20T07:42:02.532Z,478.36
2023-05-20T07:43:02.509Z,474.61
2023-05-20T07:44:02.491Z,472.26
2023-05-20T07:45:02.522Z,472.93
2023-05-20T07:46:02.542Z,468.28
2023-05-20T07:47:02.465Z,467.95
2023-05-20T07:48:02.477Z,465.34
2023-05-20T07:49:02.440Z,467.62
2023-05-20T07:50:02.424Z,465.67
2023-05-20T07:51:02.407Z,462.76
2023-05-20T07:52:03.135Z,462.12
2023-05-20T07:53:02.398Z,455.80
2023-05-20T07:54:02.354Z,455.18
2023-05-20T07:55:02.335Z,453.94
2023-05-20T07:56:02.344Z,460.20
2023-05-20T07:57:02.304Z,465.34
2023-05-20T07:58:02.297Z,466.97
2023-05-20T07:59:02.309Z,464.69
2023-05-20T08:00:02.270Z,458.62
2023-05-20T08:01:02.265Z,458.93
2023-05-20T08:02:02.322Z,457.36
2023-05-20T08:03:02.475Z,451.17
2023-05-20T08:04:02.327Z,449.95
2023-05-20T08:05:00.422Z,448.44
2023-05-20T08:06:02.201Z,449.05
2023-05-20T08:07:02.180Z,446.64
2023-05-20T08:08:02.162Z,443.67
2023-05-20T08:09:01.693Z,443.37
2023-05-20T08:10:02.175Z,439.57
2023-05-20T08:11:02.119Z,436.41
2023-05-20T08:12:02.102Z,429.94
2023-05-20T08:13:02.085Z,431.61
2023-05-20T08:14:02.085Z,430.21
2023-05-20T08:15:02.094Z,429.66
2023-05-20T08:16:02.073Z,429.94
2023-05-20T08:17:02.090Z,428.28
2023-05-20T08:18:02.083Z,431.61
2023-05-20T08:19:02.051Z,429.11
2023-05-20T08:20:02.058Z,426.64
2023-05-20T08:21:01.974Z,425.28
2023-05-20T08:22:01.973Z,424.73
2023-05-20T08:23:01.968Z,422.85
2023-05-20T08:24:01.970Z,425.82
2023-05-20T08:25:01.971Z,423.65
2023-05-20T08:26:01.921Z,423.92
2023-05-20T08:27:01.908Z,420.45
2023-05-20T08:28:01.883Z,419.66
2023-05-20T08:29:01.914Z,412.90
2023-05-20T08:30:01.868Z,413.41
2023-05-20T08:31:01.877Z,415.21
2023-05-20T08:32:01.412Z,414.44
2023-05-20T08:33:01.863Z,406.61
2023-05-20T08:34:01.828Z,407.60
2023-05-20T08:35:01.841Z,406.36
2023-05-20T08:36:01.780Z,408.10
2023-05-20T08:37:01.780Z,405.86
2023-05-20T08:38:01.737Z,406.11
2023-05-20T08:39:01.772Z,404.14
2023-05-20T08:40:01.714Z,402.68
2023-05-20T08:41:03.781Z,404.63
2023-05-20T08:42:01.695Z,401.71
2023-05-20T08:43:01.702Z,400.50
2023-05-20T08:44:01.680Z,396.69
2023-05-20T08:45:01.644Z,399.54
2023-05-20T08:46:01.643Z,398.11
2023-05-20T08:47:01.640Z,397.64
2023-05-20T08:48:01.688Z,398.82
2023-05-20T08:49:01.623Z,399.54
2023-05-20T08:50:01.578Z,402.19
2023-05-20T08:51:01.589Z,400.02
2023-05-20T08:52:01.588Z,399.54
2023-05-20T08:53:01.572Z,400.98
2023-05-20T08:54:01.557Z,401.46
2023-05-20T08:55:01.541Z,397.64
2023-05-20T08:56:01.771Z,397.40
2023-05-20T08:57:01.503Z,397.64
2023-05-20T08:58:01.490Z,396.92
2023-05-20T08:59:01.452Z,393.64
2023-05-20T09:00:01.443Z,392.02
2023-05-20T09:01:01.444Z,400.50
2023-05-20T09:02:01.462Z,393.64
2023-05-20T09:03:01.487Z,390.88
2023-05-20T09:04:01.392Z,400.26
2023-05-20T09:05:01.480Z,402.92
2023-05-20T09:06:01.366Z,404.14
2023-05-20T09:07:01.354Z,403.65
2023-05-20T09:08:02.800Z,404.39
2023-05-20T09:09:01.334Z,404.39
2023-05-20T09:10:01.322Z,408.35
2023-05-20T09:11:01.308Z,408.60
2023-05-20T09:12:01.950Z,411.37
2023-05-20T09:13:01.271Z,412.39
2023-05-20T09:14:01.266Z,412.39
2023-05-20T09:15:01.247Z,407.85
2023-05-20T09:16:01.259Z,411.12
2023-05-20T09:17:01.229Z,414.95
2023-05-20T09:18:01.232Z,412.90
2023-05-20T09:19:01.255Z,409.35
2023-05-20T09:20:01.182Z,412.39
2023-05-20T09:21:01.199Z,411.12
2023-05-20T09:22:01.172Z,413.41
2023-05-20T09:23:01.140Z,414.44
2023-05-20T09:24:01.107Z,414.95
2023-05-20T09:25:01.120Z,416.77
2023-05-20T09:26:01.096Z,419.39
2023-05-20T09:27:01.082Z,419.66
2023-05-20T09:28:01.064Z,417.55
2023-05-20T09:29:01.062Z,418.08
2023-05-20T09:30:01.046Z,418.60
2023-05-20T09:31:01.081Z,421.51
2023-05-20T09:32:01.058Z,423.92
2023-05-20T09:33:01.057Z,424.73
2023-05-20T09:34:00.987Z,428.56
2023-05-20T09:35:00.971Z,432.17
2023-05-20T09:36:00.600Z,434.42
2023-05-20T09:37:00.973Z,435.55
2023-05-20T09:38:00.917Z,440.15
2023-05-20T09:39:00.429Z,439.28
2023-05-20T09:40:00.911Z,440.15
2023-05-20T09:41:00.890Z,440.15
2023-05-20T09:42:02.482Z,440.74
2023-05-20T09:43:00.868Z,442.20
2023-05-20T09:44:00.854Z,445.15
2023-05-20T09:45:00.846Z,449.65
2023-05-20T09:46:00.892Z,449.05
2023-05-20T09:47:00.808Z,446.34
2023-05-20T09:48:00.837Z,448.14
2023-05-20T09:49:00.798Z,447.24
2023-05-20T09:50:00.803Z,446.34
2023-05-20T09:51:00.771Z,447.54
2023-05-20T09:52:00.766Z,447.24
2023-05-20T09:53:00.758Z,442.20
2023-05-20T09:54:00.732Z,442.78
2023-05-20T09:55:00.713Z,441.32
2023-05-20T09:56:00.711Z,441.61
2023-05-20T09:57:00.698Z,442.20
2023-05-20T09:58:00.670Z,442.20
2023-05-20T09:59:00.671Z,437.27
2023-05-20T10:00:00.649Z,442.49
2023-05-20T10:01:00.684Z,439.57
2023-05-20T10:02:00.727Z,440.74
2023-05-20T10:03:00.729Z,436.41
2023-05-20T10:04:00.707Z,438.99
2023-05-20T10:05:00.614Z,437.84
2023-05-20T10:06:00.576Z,433.85
2023-05-20T10:07:00.573Z,436.12
2023-05-20T10:08:00.567Z,436.70
2023-05-20T10:09:00.548Z,433.85
2023-05-20T10:10:00.527Z,437.27
2023-05-20T10:11:00.519Z,438.71
2023-05-20T10:12:00.498Z,435.27
2023-05-20T10:13:00.527Z,438.13
2023-05-20T10:14:00.476Z,436.41
2023-05-20T10:15:00.470Z,431.33
2023-05-20T10:16:00.506Z,425.28
2023-05-20T10:17:00.451Z,419.39
2023-05-20T10:18:00.509Z,417.82
2023-05-20T10:19:00.432Z,414.70
2023-05-20T10:20:00.387Z,413.16
2023-05-20T10:21:00.388Z,412.39
2023-05-20T10:22:00.360Z,409.10
2023-05-20T10:23:00.359Z,413.92
2023-05-20T10:25:00.403Z,422.58
2023-05-20T10:26:00.324Z,426.91
2023-05-20T10:27:00.311Z,429.66
2023-05-20T10:28:00.309Z,431.05
2023-05-20T10:29:00.301Z,433.85
2023-05-20T10:30:00.398Z,438.42
2023-05-20T10:31:00.274Z,440.74
2023-05-20T10:32:00.331Z,441.61
2023-05-20T10:33:00.401Z,448.14
2023-05-20T10:34:00.238Z,452.09
2023-05-20T10:35:00.228Z,456.11
2023-05-20T10:36:00.250Z,457.67
2023-05-20T10:37:00.222Z,458.62
2023-05-20T10:38:00.172Z,456.42
2023-05-20T10:39:00.173Z,452.40
2023-05-20T10:40:00.166Z,454.87
2023-05-20T10:41:00.124Z,453.94
2023-05-20T10:42:00.395Z,451.78
2023-05-20T10:43:00.122Z,451.17
2023-05-20T10:44:00.079Z,449.65
2023-05-20T10:45:00.074Z,448.74
2023-05-20T10:46:00.371Z,445.45
2023-05-20T10:47:20.553Z,442.20
2023-05-20T10:48:01.154Z,440.74
2023-05-20T10:49:00.158Z,445.45
2023-05-20T10:50:00.036Z,445.74
2023-05-20T10:51:00.023Z,444.26
2023-05-20T10:51:59.974Z,447.84
2023-05-20T10:53:00.008Z,450.87
2023-05-20T10:53:59.978Z,451.17
2023-05-20T10:54:59.959Z,455.80
2023-05-20T10:55:59.995Z,459.57
2023-05-20T10:56:59.934Z,462.76
2023-05-20T10:57:59.906Z,457.67
2023-05-20T10:58:59.915Z,456.42
2023-05-20T10:59:59.884Z,455.49
2023-05-20T11:01:00.093Z,458.30
2023-05-20T11:01:59.849Z,458.62
2023-05-20T11:02:59.918Z,460.20
2023-05-20T11:03:59.933Z,459.89
2023-05-20T11:04:59.832Z,459.57
2023-05-20T11:05:59.820Z,458.62
2023-05-20T11:06:59.826Z,460.84
2023-05-20T11:07:59.772Z,462.12
2023-05-20T11:08:59.775Z,465.67
2023-05-20T11:10:00.363Z,465.02
2023-05-20T11:10:59.761Z,460.52
2023-05-20T11:11:59.744Z,461.48
2023-05-20T11:12:59.728Z,463.08
2023-05-20T11:13:59.700Z,461.48
2023-05-20T11:14:59.738Z,461.48
2023-05-20T11:15:59.729Z,457.99
2023-05-20T11:16:59.716Z,457.36
2023-05-20T11:17:59.742Z,456.42
2023-05-20T11:18:59.688Z,459.57
2023-05-20T11:19:59.675Z,462.12
2023-05-20T11:20:59.624Z,457.99
2023-05-20T11:21:59.605Z,451.78
2023-05-20T11:22:59.595Z,444.85
2023-05-20T11:23:58.120Z,438.42
2023-05-20T11:24:59.567Z,435.84
2023-05-20T11:25:59.569Z,436.98
2023-05-20T11:26:59.557Z,437.55
2023-05-20T11:27:59.553Z,434.42
2023-05-20T11:29:01.295Z,434.99
2023-05-20T11:29:59.492Z,429.94
2023-05-20T11:30:59.499Z,424.73
2023-05-20T11:31:59.543Z,423.65
2023-05-20T11:32:59.526Z,424.46
2023-05-20T11:33:59.095Z,420.45
2023-05-20T11:34:59.428Z,413.41
2023-05-20T11:35:59.418Z,416.77
2023-05-20T11:36:59.471Z,413.41
2023-05-20T11:37:59.403Z,415.21
2023-05-20T11:38:59.374Z,417.82
2023-05-20T11:39:57.880Z,422.31
2023-05-20T11:40:59.589Z,429.38
2023-05-20T11:41:59.377Z,432.17
2023-05-20T11:42:59.314Z,436.70
2023-05-20T11:43:58.858Z,440.45
2023-05-20T11:44:59.518Z,440.45
2023-05-20T11:45:59.516Z,443.37
2023-05-20T11:46:59.296Z,441.03
2023-05-20T11:47:59.281Z,440.74
2023-05-20T11:48:59.228Z,443.67
2023-05-20T11:49:59.223Z,442.78
2023-05-20T11:51:01.311Z,443.37
2023-05-20T11:51:59.202Z,441.90
2023-05-20T11:52:59.474Z,448.44
2023-05-20T11:53:59.192Z,449.35
2023-05-20T11:54:59.165Z,446.04
2023-05-20T11:55:59.242Z,443.67
2023-05-20T11:56:59.141Z,439.57
2023-05-20T11:57:59.144Z,441.03
2023-05-20T11:58:57.432Z,443.08
2023-05-20T11:59:59.110Z,445.15
2023-05-20T12:01:05.739Z,449.35
2023-05-20T12:02:00.086Z,454.87
2023-05-20T12:02:59.159Z,458.93
2023-05-20T12:03:59.198Z,457.36
2023-05-20T12:04:59.148Z,455.18
2023-05-20T12:05:59.011Z,449.65
2023-05-20T12:06:59.044Z,449.95
2023-05-20T12:07:59.070Z,453.32
2023-05-20T12:08:59.009Z,453.63
2023-05-20T12:09:58.974Z,460.20
2023-05-20T12:10:58.991Z,463.08
2023-05-20T12:11:58.932Z,466.97
2023-05-20T12:13:01.942Z,467.95
2023-05-20T12:13:58.914Z,473.27
2023-05-20T12:14:58.897Z,470.93
2023-05-20T12:15:58.908Z,475.97
2023-05-20T12:16:58.873Z,482.16
2023-05-20T12:17:58.890Z,484.62
2023-05-20T12:18:58.905Z,489.96
2023-05-20T12:19:58.827Z,488.88
2023-05-20T12:20:58.805Z,490.32
2023-05-20T12:21:58.799Z,491.04
2023-05-20T12:22:58.812Z,498.01
2023-05-20T12:23:58.772Z,501.76
2023-05-20T12:24:58.764Z,500.25
2023-05-20T12:25:58.730Z,504.41
2023-05-20T12:26:58.736Z,507.48
2023-05-20T12:27:58.716Z,507.10
2023-05-20T12:28:58.731Z,509.81